sensor_id;sensor_type;location;lat;lon;timestamp;P1;durP1;ratioP1;P2;durP2;ratioP2
11510;SDS011;5812;48.864;9.190;2023-02-11T19:12:53;15.53;;;15.43;;
11510;SDS011;5812;48.864;9.190;2023-02-11T19:15:20;16.73;;;16.63;;
11510;SDS011;5812;48.864;9.190;2023-02-11T19:17:46;16.60;;;16.50;;
11510;SDS011;5812;48.864;9.190;2023-02-11T19:20:12;17.93;;;17.83;;
11510;SDS011;5812;48.864;9.190;2023-02-11T19:22:38;16.03;;;15.93;;
11510;SDS011;5812;48.864;9.190;2023-02-11T19:25:04;15.97;;;15.87;;
11510;SDS011;5812;48.864;9.190;2023-02-11T19:27:31;15.83;;;15.73;;
11510;SDS011;5812;48.864;9.190;2023-02-11T19:29:56;16.90;;;16.80;;
11510;SDS011;5812;48.864;9.190;2023-02-11T19:32:22;15.53;;;15.43;;
11510;SDS011;5812;48.864;9.190;2023-02-11T19:34:48;16.13;;;16.03;;
11510;SDS011;5812;48.864;9.190;2023-02-11T19:37:14;17.60;;;17.50;;
11510;SDS011;5812;48.864;9.190;2023-02-11T19:39:40;18.87;;;18.77;;
11510;SDS011;5812;48.864;9.190;2023-02-11T19:42:06;17.73;;;17.63;;
11510;SDS011;5812;48.864;9.190;2023-02-11T19:44:32;17.03;;;16.93;;
11510;SDS011;5812;48.864;9.190;2023-02-11T19:46:58;17.23;;;17.13;;
11510;SDS011;5812;48.864;9.190;2023-02-11T19:49:24;17.00;;;16.90;;
11510;SDS011;5812;48.864;9.190;2023-02-11T19:51:50;15.13;;;15.03;;
11510;SDS011;5812;48.864;9.190;2023-02-11T19:54:17;17.60;;;17.50;;
11510;SDS011;5812;48.864;9.190;2023-02-11T19:56:44;16.57;;;16.47;;
11510;SDS011;5812;48.864;9.190;2023-02-11T19:59:11;16.27;;;16.17;;
11510;SDS011;5812;48.864;9.190;2023-02-11T20:01:37;16.97;;;16.87;;
11510;SDS011;5812;48.864;9.190;2023-02-11T20:04:03;17.47;;;17.37;;
11510;SDS011;5812;48.864;9.190;2023-02-11T20:06:30;18.87;;;18.77;;
11510;SDS011;5812;48.864;9.190;2023-02-11T20:08:57;15.70;;;15.60;;
11510;SDS011;5812;48.864;9.190;2023-02-11T20:11:24;17.60;;;17.50;;
11510;SDS011;5812;48.864;9.190;2023-02-11T20:13:52;18.10;;;18.00;;
11510;SDS011;5812;48.864;9.190;2023-02-11T20:16:19;18.40;;;18.30;;
11510;SDS011;5812;48.864;9.190;2023-02-11T20:18:46;17.40;;;17.30;;
11510;SDS011;5812;48.864;9.190;2023-02-11T20:21:14;17.97;;;17.87;;
11510;SDS011;5812;48.864;9.190;2023-02-11T20:23:45;17.20;;;17.10;;
11510;SDS011;5812;48.864;9.190;2023-02-11T20:26:12;17.77;;;17.67;;
11510;SDS011;5812;48.864;9.190;2023-02-11T20:28:41;18.33;;;18.23;;
11510;SDS011;5812;48.864;9.190;2023-02-11T20:31:07;17.80;;;17.70;;
11510;SDS011;5812;48.864;9.190;2023-02-11T20:33:34;18.43;;;18.33;;
11510;SDS011;5812;48.864;9.190;2023-02-11T20:36:02;18.13;;;18.03;;
11510;SDS011;5812;48.864;9.190;2023-02-11T20:38:30;19.30;;;19.20;;
11510;SDS011;5812;48.864;9.190;2023-02-11T20:41:00;18.67;;;18.57;;
11510;SDS011;5812;48.864;9.190;2023-02-11T20:43:30;17.77;;;17.67;;
11510;SDS011;5812;48.864;9.190;2023-02-11T20:46:00;17.37;;;17.27;;
11510;SDS011;5812;48.864;9.190;2023-02-11T20:48:27;18.70;;;18.60;;
11510;SDS011;5812;48.864;9.190;2023-02-11T20:50:52;18.83;;;18.73;;
11510;SDS011;5812;48.864;9.190;2023-02-11T20:53:18;18.13;;;18.03;;
11510;SDS011;5812;48.864;9.190;2023-02-11T20:55:43;19.07;;;18.97;;
11510;SDS011;5812;48.864;9.190;2023-02-11T20:58:09;17.17;;;17.07;;
11510;SDS011;5812;48.864;9.190;2023-02-11T21:00:35;17.90;;;17.80;;
11510;SDS011;5812;48.864;9.190;2023-02-11T21:03:01;17.93;;;17.83;;
11510;SDS011;5812;48.864;9.190;2023-02-11T21:05:27;18.33;;;18.23;;
11510;SDS011;5812;48.864;9.190;2023-02-11T21:07:53;19.17;;;19.07;;
11510;SDS011;5812;48.864;9.190;2023-02-11T21:10:19;17.67;;;17.57;;
11510;SDS011;5812;48.864;9.190;2023-02-11T21:12:45;18.70;;;18.60;;
11510;SDS011;5812;48.864;9.190;2023-02-11T21:15:10;18.37;;;18.27;;
11510;SDS011;5812;48.864;9.190;2023-02-11T21:17:37;17.27;;;17.17;;
11510;SDS011;5812;48.864;9.190;2023-02-11T21:20:03;19.23;;;19.13;;
11510;SDS011;5812;48.864;9.190;2023-02-11T21:22:29;18.47;;;18.37;;
11510;SDS011;5812;48.864;9.190;2023-02-11T21:24:54;19.30;;;19.20;;
11510;SDS011;5812;48.864;9.190;2023-02-11T21:27:20;17.90;;;17.80;;
11510;SDS011;5812;48.864;9.190;2023-02-11T21:29:46;17.53;;;17.43;;
11510;SDS011;5812;48.864;9.190;2023-02-11T21:32:11;18.07;;;17.97;;
11510;SDS011;5812;48.864;9.190;2023-02-11T21:34:37;19.17;;;19.07;;
11510;SDS011;5812;48.864;9.190;2023-02-11T21:37:02;19.57;;;19.47;;
11510;SDS011;5812;48.864;9.190;2023-02-11T21:39:28;19.70;;;19.60;;
11510;SDS011;5812;48.864;9.190;2023-02-11T21:41:53;18.57;;;18.47;;
11510;SDS011;5812;48.864;9.190;2023-02-11T21:44:19;19.60;;;19.50;;
11510;SDS011;5812;48.864;9.190;2023-02-11T21:46:45;17.40;;;17.30;;
11510;SDS011;5812;48.864;9.190;2023-02-11T21:49:11;18.57;;;18.47;;
11510;SDS011;5812;48.864;9.190;2023-02-11T21:51:37;18.83;;;18.73;;
11510;SDS011;5812;48.864;9.190;2023-02-11T21:54:03;20.30;;;20.20;;
11510;SDS011;5812;48.864;9.190;2023-02-11T21:56:29;17.93;;;17.83;;
11510;SDS011;5812;48.864;9.190;2023-02-11T21:58:57;19.00;;;18.90;;
11510;SDS011;5812;48.864;9.190;2023-02-11T22:01:26;19.03;;;18.93;;
11510;SDS011;5812;48.864;9.190;2023-02-11T22:03:53;19.27;;;19.17;;
11510;SDS011;5812;48.864;9.190;2023-02-11T22:06:20;19.00;;;18.90;;
11510;SDS011;5812;48.864;9.190;2023-02-11T22:08:50;19.50;;;19.40;;
11510;SDS011;5812;48.864;9.190;2023-02-11T22:11:17;18.53;;;18.43;;
11510;SDS011;5812;48.864;9.190;2023-02-11T22:13:43;19.43;;;19.33;;
11510;SDS011;5812;48.864;9.190;2023-02-11T22:16:11;19.20;;;19.10;;
11510;SDS011;5812;48.864;9.190;2023-02-11T22:18:38;19.27;;;19.17;;
11510;SDS011;5812;48.864;9.190;2023-02-11T22:21:08;18.43;;;18.33;;
11510;SDS011;5812;48.864;9.190;2023-02-11T22:23:35;18.47;;;18.37;;
11510;SDS011;5812;48.864;9.190;2023-02-11T22:26:03;19.37;;;19.27;;
11510;SDS011;5812;48.864;9.190;2023-02-11T22:28:31;19.57;;;19.47;;
11510;SDS011;5812;48.864;9.190;2023-02-11T22:30:57;18.80;;;18.70;;
11510;SDS011;5812;48.864;9.190;2023-02-11T22:33:23;20.17;;;20.07;;
11510;SDS011;5812;48.864;9.190;2023-02-11T22:35:56;19.03;;;18.93;;
11510;SDS011;5812;48.864;9.190;2023-02-11T22:38:30;20.30;;;20.20;;
11510;SDS011;5812;48.864;9.190;2023-02-11T22:40:57;19.93;;;19.83;;
11510;SDS011;5812;48.864;9.190;2023-02-11T22:43:23;20.17;;;20.07;;
11510;SDS011;5812;48.864;9.190;2023-02-11T22:45:49;19.37;;;19.27;;
11510;SDS011;5812;48.864;9.190;2023-02-11T22:48:15;19.53;;;19.43;;
11510;SDS011;5812;48.864;9.190;2023-02-11T22:50:41;20.07;;;19.97;;
11510;SDS011;5812;48.864;9.190;2023-02-11T22:53:07;18.97;;;18.87;;
11510;SDS011;5812;48.864;9.190;2023-02-11T22:55:36;19.33;;;19.23;;
11510;SDS011;5812;48.864;9.190;2023-02-11T22:58:03;20.27;;;20.17;;
11510;SDS011;5812;48.864;9.190;2023-02-11T23:00:29;20.13;;;20.03;;
11510;SDS011;5812;48.864;9.190;2023-02-11T23:02:59;20.13;;;20.03;;
11510;SDS011;5812;48.864;9.190;2023-02-11T23:05:24;20.33;;;20.23;;
11510;SDS011;5812;48.864;9.190;2023-02-11T23:07:50;20.97;;;20.87;;
11510;SDS011;5812;48.864;9.190;2023-02-11T23:10:15;19.83;;;19.73;;
11510;SDS011;5812;48.864;9.190;2023-02-11T23:12:41;22.17;;;22.07;;
11510;SDS011;5812;48.864;9.190;2023-02-11T23:15:07;19.80;;;19.70;;
11510;SDS011;5812;48.864;9.190;2023-02-11T23:17:32;20.60;;;20.50;;
11510;SDS011;5812;48.864;9.190;2023-02-11T23:19:58;19.10;;;19.00;;
11510;SDS011;5812;48.864;9.190;2023-02-11T23:22:23;19.57;;;19.47;;
11510;SDS011;5812;48.864;9.190;2023-02-11T23:24:49;20.53;;;20.43;;
11510;SDS011;5812;48.864;9.190;2023-02-11T23:27:15;19.10;;;19.00;;
11510;SDS011;5812;48.864;9.190;2023-02-11T23:29:40;19.30;;;19.20;;
11510;SDS011;5812;48.864;9.190;2023-02-11T23:32:06;20.03;;;19.93;;
11510;SDS011;5812;48.864;9.190;2023-02-11T23:34:31;20.07;;;19.97;;
11510;SDS011;5812;48.864;9.190;2023-02-11T23:36:57;21.30;;;21.20;;
11510;SDS011;5812;48.864;9.190;2023-02-11T23:39:23;19.10;;;19.00;;
11510;SDS011;5812;48.864;9.190;2023-02-11T23:41:50;19.47;;;19.37;;
11510;SDS011;5812;48.864;9.190;2023-02-11T23:44:16;19.50;;;19.40;;
11510;SDS011;5812;48.864;9.190;2023-02-11T23:46:41;21.53;;;21.43;;
11510;SDS011;5812;48.864;9.190;2023-02-11T23:49:07;20.13;;;20.03;;
11510;SDS011;5812;48.864;9.190;2023-02-11T23:51:33;19.73;;;19.63;;
11510;SDS011;5812;48.864;9.190;2023-02-11T23:53:59;19.57;;;19.47;;
11510;SDS011;5812;48.864;9.190;2023-02-11T23:56:26;18.70;;;18.60;;
11510;SDS011;5812;48.864;9.190;2023-02-11T23:58:53;19.20;;;19.10;;
